Terminal Aerodrome Forecast
Issued by NWS

Home | Current Version | Previous Version | Text Only | Print | Product List | Glossary On
Versions: 1 2 3 4 5 6 7 8 9 10 11 12 13 14 15 16 17 18 19 20 21 22 23 24 25 26 27 28 29 30 31 32 33 34 35 36 37
000
FTUS45 KBOU 230448 AAB
TAFAPA
TAF AMD
KAPA 230448Z 2305/2324 14008KT P6SM SCT120 BKN200
     FM230600 28010G15KT P6SM SCT090 BKN120
     FM230800 34014G25KT P6SM SCT060 BKN080
     FM230900 36020G32KT P6SM -SHSN SCT025 BKN040 OVC060
     FM231000 03016G28KT 5SM -SN BR SCT012 BKN020 OVC040
      TEMPO 2310/2314 1SM -SN BKN005 OVC012
     FM231600 05012G16KT P6SM SCT035 BKN060
     FM231900 34018G30KT P6SM VCSH SCT050 BKN080
     FM232300 30010KT P6SM SCT080 BKN140=

USA.gov is the U.S. government's official web portal to all federal, state and local government web resources and services.